Skip Navigation Links Skip Navigation Links

Current Weather

Burlington Muni, Burlington, Wis.

For information only: do not use for flight planning or navigation.
Latest weather
Observation time Wednesday, August 12, 2020 12:35 PM CDT
Local time Wednesday, August 12, 2020 12:47 PM CDT
Flight conditions Visual Meteorological Conditions
Winds
Wind direction Southeast (140°)
Wind speed 5 mph
Visibility 10 mi.
Sky condition
Ceiling unlimited
Sky clear
Temperature 79°F
Dewpoint 60°F
Altimeter 30.14 in.Hg
Derived measurements
Relative humidity 53%
Heat index 79°F
Density altitude 2050 ft.
Remarks
Fully automated report.
Automated weather observing station with precipitation discriminator.
Present weather sensor not operating.
METAR KBUU 121735Z AUTO 14004KT 10SM CLR 26/16 A3014 RMK AO2 T02600158 PWINO

Settings

Location code

InnerDrive.Weather 4.0.6770.0 Release CLR 4.0.30319.42000
Copyright ©2018 Inner Drive Technology. All rights reserved. Portions Copyright ©1986-2018 David Braverman.

Find weather

Site navigation


Skip Navigation Links

Place info

Page info

PayPal - The safer, easier way to pay online!

Return home.

Copyright ©2020 Inner Drive Technology. Purveyors of fine, hand-crafted computer software. Page printed 2020-08-12T17:47:53 UTC.